createdAt,value
2018-11-22T00:04:49.618Z,39.35
2018-11-22T00:07:30.527Z,48.58
2018-11-22T00:09:59.973Z,38.55
2018-11-22T00:12:48.439Z,46.15
2018-11-22T00:15:29.337Z,38.42
2018-11-22T00:20:53.312Z,42.80
2018-11-22T00:23:34.643Z,39.08
2018-11-22T00:26:15.759Z,36.05
2018-11-22T00:28:57.207Z,39.65
2018-11-22T00:34:50.574Z,42.62
2018-11-22T00:37:31.798Z,42.78
2018-11-22T00:40:14.411Z,41.50
2018-11-22T00:42:55.624Z,39.03
2018-11-22T00:45:37.159Z,37.53
2018-11-22T00:48:17.791Z,42.93
2018-11-22T00:50:58.667Z,40.35
2018-11-22T00:53:39.416Z,44.05
2018-11-22T00:56:20.214Z,37.58
2018-11-22T00:59:00.773Z,38.83
2018-11-22T01:01:41.878Z,35.88
2018-11-22T01:04:22.898Z,39.40
2018-11-22T01:07:04.271Z,43.28
2018-11-22T01:09:45.453Z,39.60
2018-11-22T01:12:26.370Z,39.15
2018-11-22T01:15:07.685Z,41.20
2018-11-22T01:17:49.088Z,42.65
2018-11-22T01:20:30.209Z,36.00
2018-11-22T01:23:11.476Z,33.92
2018-11-22T01:25:52.038Z,35.05
2018-11-22T01:28:33.419Z,34.08
2018-11-22T01:31:14.729Z,41.08
2018-11-22T01:33:55.744Z,37.08
2018-11-22T01:36:37.043Z,36.90
2018-11-22T01:39:18.122Z,35.60
2018-11-22T01:41:59.022Z,41.42
2018-11-22T01:44:39.904Z,35.30
2018-11-22T01:47:21.215Z,38.35
2018-11-22T01:50:02.144Z,39.25
2018-11-22T01:52:43.343Z,45.63
2018-11-22T01:55:24.697Z,43.83
2018-11-22T01:58:06.042Z,40.63
2018-11-22T02:00:35.452Z,44.05
2018-11-22T02:03:23.914Z,45.75
2018-11-22T02:06:04.871Z,38.95
2018-11-22T02:08:45.582Z,37.33
2018-11-22T02:11:26.557Z,40.35
2018-11-22T02:14:07.500Z,42.62
2018-11-22T02:16:48.602Z,42.53
2018-11-22T02:19:29.246Z,38.10
2018-11-22T02:22:10.125Z,44.10
2018-11-22T02:24:51.244Z,34.43
2018-11-22T02:27:32.548Z,40.35
2018-11-22T02:30:14.329Z,42.15
2018-11-22T02:32:59.833Z,39.70
2018-11-22T02:35:41.260Z,40.58
2018-11-22T02:38:22.198Z,41.20
2018-11-22T02:40:51.596Z,38.42
2018-11-22T02:43:40.043Z,42.35
2018-11-22T02:46:28.927Z,42.90
2018-11-22T02:49:17.365Z,40.92
2018-11-22T02:52:05.786Z,39.53
2018-11-22T02:54:46.903Z,39.63
2018-11-22T02:57:27.759Z,39.23
2018-11-22T03:00:08.513Z,42.50
2018-11-22T03:02:49.428Z,50.90
2018-11-22T03:05:30.362Z,47.30
2018-11-22T03:08:11.312Z,41.48
2018-11-22T03:10:52.767Z,41.95
2018-11-22T03:13:33.468Z,38.58
2018-11-22T03:16:14.406Z,42.25
2018-11-22T03:18:55.591Z,37.55
2018-11-22T03:21:36.973Z,44.98
2018-11-22T03:24:17.559Z,46.45
2018-11-22T03:26:58.357Z,43.25
2018-11-22T03:29:39.476Z,42.08
2018-11-22T03:32:20.084Z,37.80
2018-11-22T03:35:00.785Z,35.70
2018-11-22T03:37:41.845Z,40.83
2018-11-22T03:40:24.309Z,40.60
2018-11-22T03:43:05.313Z,42.53
2018-11-22T03:45:46.766Z,39.98
2018-11-22T03:48:28.034Z,42.13
2018-11-22T03:51:09.501Z,42.30
2018-11-22T03:53:50.568Z,41.50
2018-11-22T03:56:31.466Z,41.73
2018-11-22T03:59:12.800Z,41.58
2018-11-22T04:01:42.206Z,39.90
2018-11-22T04:04:30.629Z,46.25
2018-11-22T04:07:11.968Z,39.00
2018-11-22T04:09:53.799Z,39.35
2018-11-22T04:12:35.013Z,47.88
2018-11-22T04:15:16.447Z,43.40
2018-11-22T04:20:54.860Z,43.80
2018-11-22T04:23:24.294Z,40.17
2018-11-22T04:26:12.728Z,39.50
2018-11-22T04:29:01.193Z,37.85
2018-11-22T04:31:41.908Z,47.20
2018-11-22T04:34:23.564Z,43.87
2018-11-22T04:37:04.506Z,38.23
2018-11-22T04:39:45.957Z,38.08
2018-11-22T04:42:27.301Z,43.25
2018-11-22T04:45:09.003Z,43.60
2018-11-22T04:47:51.261Z,37.95
2018-11-22T04:50:22.022Z,40.15
2018-11-22T04:53:10.493Z,40.33
2018-11-22T04:55:51.609Z,37.90
2018-11-22T05:01:15.017Z,36.98
2018-11-22T05:03:55.667Z,39.85
2018-11-22T05:06:29.624Z,44.00
2018-11-22T05:09:11.071Z,39.92
2018-11-22T05:14:58.915Z,39.55
2018-11-22T05:17:31.804Z,39.65
2018-11-22T05:20:07.949Z,41.73
2018-11-22T05:25:10.943Z,39.27
2018-11-22T05:27:42.297Z,43.83
2018-11-22T05:33:13.565Z,37.42
2018-11-22T05:35:43.400Z,35.33
2018-11-22T05:38:14.516Z,38.05
2018-11-22T05:40:49.378Z,38.38
2018-11-22T05:45:57.831Z,35.65
2018-11-22T05:48:26.896Z,40.80
2018-11-22T05:51:01.981Z,40.25
2018-11-22T05:53:31.183Z,32.95
2018-11-22T05:56:03.964Z,34.90
2018-11-22T05:58:34.681Z,32.83
2018-11-22T06:01:07.831Z,32.93
2018-11-22T06:03:39.575Z,31.82
2018-11-22T06:06:10.578Z,34.38
2018-11-22T06:08:39.794Z,36.13
2018-11-22T06:11:10.952Z,30.72
2018-11-22T06:13:41.760Z,35.05
2018-11-22T06:16:13.094Z,29.52
2018-11-22T06:18:42.356Z,35.10
2018-11-22T06:21:15.789Z,35.30
2018-11-22T06:23:48.741Z,37.30
2018-11-22T06:26:22.109Z,42.78
2018-11-22T06:28:57.466Z,35.50
2018-11-22T06:31:27.165Z,44.00
2018-11-22T06:34:02.670Z,41.80
2018-11-22T06:36:32.802Z,44.48
2018-11-22T06:39:07.270Z,39.85
2018-11-22T06:44:32.157Z,40.43
2018-11-22T06:47:16.368Z,44.75
2018-11-22T06:52:41.835Z,44.33
2018-11-22T06:55:24.637Z,44.50
2018-11-22T06:58:06.122Z,41.23
2018-11-22T07:00:47.267Z,45.25
2018-11-22T07:03:28.509Z,37.63
2018-11-22T07:06:09.196Z,40.60
2018-11-22T07:08:50.230Z,42.30
2018-11-22T07:11:31.048Z,41.70
2018-11-22T07:14:12.296Z,39.50
2018-11-22T07:16:53.782Z,43.00
2018-11-22T07:19:35.112Z,42.48
2018-11-22T07:22:18.947Z,45.98
2018-11-22T07:24:56.954Z,35.78
2018-11-22T07:30:23.929Z,43.28
2018-11-22T07:33:05.503Z,34.40
2018-11-22T07:35:46.172Z,30.60
2018-11-22T07:38:19.290Z,36.98
2018-11-22T07:41:08.935Z,31.90
2018-11-22T07:43:49.787Z,29.85
2018-11-22T07:46:30.374Z,28.42
2018-11-22T07:49:11.275Z,28.00
2018-11-22T07:51:52.145Z,29.07
2018-11-22T07:54:33.747Z,25.65
2018-11-22T07:59:50.571Z,27.17
2018-11-22T08:02:18.341Z,33.18
2018-11-22T08:04:58.961Z,33.45
2018-11-22T08:07:30.239Z,32.00
2018-11-22T08:10:11.234Z,38.80
2018-11-22T08:12:46.880Z,35.03
2018-11-22T08:15:16.661Z,31.60
2018-11-22T08:17:58.122Z,33.38
2018-11-22T08:20:33.328Z,35.55
2018-11-22T08:23:03.652Z,27.07
2018-11-22T08:25:44.749Z,33.67
2018-11-22T08:28:18.061Z,31.42
2018-11-22T08:30:48.594Z,29.92
2018-11-22T08:33:20.123Z,29.10
2018-11-22T08:35:55.534Z,33.10
2018-11-22T08:38:24.852Z,30.72
2018-11-22T08:41:05.950Z,28.07
2018-11-22T08:43:47.128Z,26.45
2018-11-22T08:46:27.969Z,24.98
2018-11-22T08:49:09.052Z,22.17
2018-11-22T08:51:50.017Z,26.53
2018-11-22T08:54:32.763Z,23.43
2018-11-22T08:57:13.640Z,25.30
2018-11-22T08:59:53.043Z,21.40
2018-11-22T09:02:45.340Z,25.70
2018-11-22T09:05:24.224Z,23.27
2018-11-22T09:08:04.977Z,25.83
2018-11-22T09:10:46.171Z,23.33
2018-11-22T09:13:27.673Z,24.27
2018-11-22T09:16:08.889Z,25.30
2018-11-22T09:18:43.900Z,24.67
2018-11-22T09:21:32.342Z,21.97
2018-11-22T09:24:13.379Z,28.53
2018-11-22T09:26:54.349Z,23.37
2018-11-22T09:29:39.477Z,24.87
2018-11-22T09:32:16.738Z,22.87
2018-11-22T09:34:46.169Z,28.23
2018-11-22T09:37:14.588Z,26.37
2018-11-22T09:40:03.016Z,24.43
2018-11-22T09:42:43.831Z,25.80
2018-11-22T09:45:29.013Z,24.30
2018-11-22T09:48:09.866Z,27.03
2018-11-22T09:53:34.639Z,26.20
2018-11-22T09:59:05.579Z,26.17
2018-11-22T10:01:38.447Z,24.80
2018-11-22T10:09:44.564Z,25.30
2018-11-22T10:17:55.337Z,28.57
2018-11-22T10:23:13.753Z,28.77
2018-11-22T10:25:46.612Z,29.60
2018-11-22T10:28:21.637Z,29.50
2018-11-22T10:38:46.797Z,34.37
2018-11-22T10:41:19.861Z,34.17
2018-11-22T10:43:52.555Z,33.30
2018-11-22T10:49:26.685Z,36.53
2018-11-22T10:54:32.498Z,33.67
2018-11-22T10:59:54.021Z,38.33
2018-11-22T11:02:30.583Z,34.98
2018-11-22T11:05:03.314Z,31.43
2018-11-22T11:07:53.099Z,30.00
2018-11-22T11:10:28.512Z,32.17
2018-11-22T11:12:59.008Z,31.70
2018-11-22T11:15:31.861Z,32.40
2018-11-22T11:18:06.888Z,32.90
2018-11-22T11:20:37.852Z,29.67
2018-11-22T11:23:10.464Z,29.00
2018-11-22T11:25:39.691Z,30.30
2018-11-22T11:28:14.684Z,32.00
2018-11-22T11:33:22.090Z,29.47
2018-11-22T11:38:37.023Z,30.17
2018-11-22T11:43:59.208Z,30.23
2018-11-22T11:46:31.997Z,34.53
2018-11-22T11:49:11.263Z,30.57
2018-11-22T11:54:36.428Z,30.07
2018-11-22T11:59:49.462Z,34.63
2018-11-22T12:10:31.576Z,30.50
2018-11-22T12:54:16.509Z,31.90
2018-11-22T12:56:51.695Z,39.40
2018-11-22T12:59:22.089Z,30.47
2018-11-22T13:01:55.455Z,35.23
2018-11-22T13:04:30.384Z,34.57
2018-11-22T13:09:42.393Z,29.73
2018-11-22T13:12:12.032Z,34.30
2018-11-22T13:14:44.740Z,30.37
2018-11-22T13:17:17.514Z,31.13
2018-11-22T13:19:50.838Z,31.53
2018-11-22T13:22:24.212Z,28.37
2018-11-22T13:24:55.483Z,28.30
2018-11-22T13:27:25.037Z,26.53
2018-11-22T13:29:57.800Z,29.37
2018-11-22T13:32:30.518Z,24.80
2018-11-22T13:35:03.449Z,31.93
2018-11-22T13:37:36.658Z,29.00
2018-11-22T13:40:09.515Z,31.43
2018-11-22T13:42:41.978Z,31.47
2018-11-22T13:45:18.766Z,28.27
2018-11-22T13:50:31.516Z,27.60
2018-11-22T13:53:05.688Z,29.63
2018-11-22T13:55:40.414Z,32.10
2018-11-22T14:00:46.240Z,34.90
2018-11-22T14:03:17.514Z,27.47
2018-11-22T14:05:53.881Z,26.60
2018-11-22T14:08:24.760Z,29.83
2018-11-22T14:11:00.014Z,34.20
2018-11-22T14:13:30.977Z,31.17
2018-11-22T14:16:03.975Z,35.20
2018-11-22T14:18:35.087Z,29.23
2018-11-22T14:21:06.372Z,35.20
2018-11-22T14:23:35.628Z,31.00
2018-11-22T14:29:07.912Z,30.10
2018-11-22T14:34:28.349Z,28.00
2018-11-22T14:36:59.175Z,31.27
2018-11-22T14:39:33.950Z,32.67
2018-11-22T14:47:38.245Z,28.10
2018-11-22T17:50:23.426Z,55.78
2018-11-22T17:55:53.018Z,40.70
2018-11-22T18:01:00.958Z,46.85
2018-11-22T18:15:15.011Z,54.23
2018-11-22T18:20:43.400Z,88.12
2018-11-22T18:23:19.271Z,76.45
2018-11-22T18:28:34.780Z,55.15
2018-11-22T18:33:50.171Z,42.03
2018-11-22T18:36:19.987Z,44.35
2018-11-22T18:41:50.262Z,47.23
2018-11-22T18:47:19.897Z,52.05
2018-11-22T18:50:03.554Z,55.38
2018-11-22T18:52:45.034Z,50.28
2018-11-22T18:55:18.232Z,45.00
2018-11-22T18:57:59.479Z,50.58
2018-11-22T19:00:35.145Z,50.33
2018-11-22T19:03:16.252Z,52.70
2018-11-22T19:23:25.742Z,50.25
2018-11-22T19:26:06.624Z,58.83
2018-11-22T19:28:39.312Z,43.35
2018-11-22T19:31:08.477Z,52.45
2018-11-22T19:33:41.652Z,50.52
2018-11-22T19:36:15.170Z,48.02
2018-11-22T19:38:47.922Z,49.40
2018-11-22T19:41:22.527Z,55.05
2018-11-22T19:43:51.081Z,50.75
2018-11-22T19:46:24.045Z,58.25
2018-11-22T19:48:58.038Z,51.98
2018-11-22T19:54:18.267Z,58.83
2018-11-22T19:56:49.439Z,58.10
2018-11-22T19:59:21.985Z,61.18
2018-11-22T20:01:56.054Z,55.08
2018-11-22T20:04:27.467Z,52.95
2018-11-22T20:07:02.057Z,56.28
2018-11-22T20:09:32.098Z,62.90
2018-11-22T20:12:04.582Z,48.08
2018-11-22T20:14:33.945Z,53.48
2018-11-22T20:17:05.289Z,61.28
2018-11-22T20:19:36.326Z,56.20
2018-11-22T20:22:17.686Z,47.23
2018-11-22T20:24:48.937Z,55.25
2018-11-22T20:27:18.901Z,57.58
2018-11-22T20:29:50.134Z,75.92
2018-11-22T20:32:25.752Z,66.65
2018-11-22T20:34:55.550Z,60.10
2018-11-22T20:37:28.336Z,61.08
2018-11-22T20:42:57.354Z,51.85
2018-11-22T20:45:34.468Z,57.25
2018-11-22T20:48:01.781Z,60.00
2018-11-22T20:50:35.553Z,62.80
2018-11-22T20:53:11.145Z,52.65
2018-11-22T20:55:43.833Z,53.48
2018-11-22T21:04:25.229Z,53.38
2018-11-22T21:14:55.891Z,69.10
2018-11-22T21:17:31.799Z,82.88
2018-11-22T21:20:00.655Z,74.10
2018-11-22T21:22:33.530Z,85.53
2018-11-22T21:25:04.738Z,83.47
2018-11-22T21:27:38.069Z,77.42
2018-11-22T21:30:10.405Z,72.95
2018-11-22T21:32:53.414Z,56.25
2018-11-22T21:35:28.127Z,59.83
2018-11-22T21:37:57.792Z,67.92
2018-11-22T21:40:35.691Z,49.88
2018-11-22T21:43:08.427Z,56.05
2018-11-22T21:45:39.352Z,57.50
2018-11-22T21:51:09.747Z,63.48
2018-11-22T21:53:44.514Z,59.10
2018-11-22T22:04:29.419Z,59.38
2018-11-22T22:10:08.703Z,61.40
2018-11-22T22:12:40.245Z,56.25
2018-11-22T22:15:15.571Z,58.98
2018-11-22T22:17:49.566Z,67.35
2018-11-22T22:20:31.344Z,64.15
2018-11-22T22:23:04.362Z,62.88
2018-11-22T22:25:37.025Z,64.97
2018-11-22T22:28:10.049Z,60.60
2018-11-22T22:30:45.375Z,62.65
2018-11-22T22:33:15.264Z,66.95
2018-11-22T22:35:50.343Z,60.10
2018-11-22T22:40:59.381Z,53.68
2018-11-22T22:46:25.483Z,51.45
2018-11-22T22:51:47.755Z,55.60
2018-11-22T22:54:18.758Z,54.53
2018-11-22T22:56:53.852Z,74.35
2018-11-22T22:59:23.927Z,71.47
2018-11-22T23:01:59.531Z,56.30
2018-11-22T23:12:40.407Z,48.68
2018-11-22T23:15:16.541Z,55.58
2018-11-22T23:20:29.925Z,44.90
2018-11-22T23:23:09.755Z,49.35
2018-11-22T23:25:48.276Z,54.00
2018-11-22T23:28:19.453Z,55.48
2018-11-22T23:30:56.136Z,52.50
2018-11-22T23:33:25.982Z,55.15
2018-11-22T23:35:57.690Z,63.87
2018-11-22T23:38:28.903Z,50.70
2018-11-22T23:41:02.236Z,47.58
2018-11-22T23:43:33.239Z,46.90
2018-11-22T23:46:08.200Z,46.25
2018-11-22T23:48:39.245Z,51.45
2018-11-22T23:51:10.660Z,47.13
2018-11-22T23:53:40.300Z,51.83
2018-11-22T23:56:14.826Z,60.43
2018-11-22T23:58:45.694Z,51.45
